Airfield :
LOGIN :

Register | Disclaimer

   EN    FR    IT 

 










Legend :    VFR   Marginal VFR   IFR   Intensive IFR   Very Intensive IFR
Visi :
Ceiling :
>= 8 km
>= 3000ft
5 to 8 km
1000 to 3000 ft
1500m to 5 km
500 to 1000 ft
800 to 1500m
200 to 500 ft
< 800m
< 200 ft
Symbols :   Thunderstorms  Fog  Heavy snow  Heavy precipitations  Wind > 20 kt
SIGMETs :     Misc.  Thunderstorms  Icing  Turbulence  Mountain Waves  Volcanic Ashes







- Airport Elevation : 37 ft


EHVL - Vlieland Heliport

CURRENT METAR :
  • 111825Z AUTO 02007KT 350V050 9999 OVC034 06/02 Q1024 REDZ BLU

EXPIRED METARs :
  • 111814Z AUTO 04012KT 9999 -RA FEW007 BKN028 OVC036 06/02 Q1024 BLU
  • 111805Z AUTO 06007KT 9999 +DZRA FEW028 BKN032 OVC039 06/02 Q1024 BLU
  • 111755Z AUTO 06007KT 9999 SCT032 BKN039 OVC044 06/02 Q1024 BLU
  • 111725Z AUTO 35008KT 9999 BKN038/// BKN043/// BKN048/// 06/01 Q1024 BLU
  • 111655Z AUTO 34007KT 310V010 9999 -RA FEW011/// BKN035/// OVC039/// 07/01 Q1023 BLU
  • 111625Z AUTO 36009KT 340V060 9999 DZ FEW002/// SCT028/// BKN036/// 07/00 Q1023 BLU
  • 111555Z AUTO 33007KT 290V360 9999 FEW040 OVC044 07/00 Q1023 BLU

Expired Forecast.
No reported NOTAMs for that airfield.



MET'MAP, your aeronautical weather chart ! - Copyright ORBIFLY December 2007 - Disclaimer

ORBIFLY MET'MAP TEAM :

Programming & Development : Alexandra Zaïnal
Concept & Development : Baudouin d'Aumeries
Co-Development & Prog : Marc-Olivier Méhu
Technical & hardware support : Manuel Goepfert

Contact : metmap@orbifly.com




SOURCES & CREDITS :

   NOAA